createdAt,value
2023-03-16T00:01:48.785Z,44.82
2023-03-16T00:04:16.175Z,44.62
2023-03-16T00:06:43.320Z,44.68
2023-03-16T00:09:13.902Z,44.95
2023-03-16T00:11:40.891Z,44.94
2023-03-16T00:14:08.969Z,44.97
2023-03-16T00:16:36.270Z,44.96
2023-03-16T00:19:06.212Z,44.75
2023-03-16T00:24:19.969Z,44.95
2023-03-16T00:26:47.057Z,44.67
2023-03-16T00:29:14.292Z,44.67
2023-03-16T00:31:44.190Z,45.11
2023-03-16T00:34:12.032Z,44.78
2023-03-16T00:36:39.092Z,45.09
2023-03-16T00:39:07.069Z,44.75
2023-03-16T00:41:38.167Z,44.95
2023-03-16T00:44:05.978Z,44.90
2023-03-16T00:46:33.051Z,44.93
2023-03-16T00:49:00.224Z,45.00
2023-03-16T00:51:27.074Z,44.82
2023-03-16T00:53:54.225Z,45.10
2023-03-16T00:56:21.029Z,45.15
2023-03-16T00:58:48.476Z,45.26
2023-03-16T01:01:16.322Z,44.91
2023-03-16T01:03:43.774Z,44.98
2023-03-16T01:06:11.659Z,44.92
2023-03-16T01:08:39.131Z,45.15
2023-03-16T01:11:06.590Z,45.01
2023-03-16T01:13:33.858Z,45.31
2023-03-16T01:16:00.879Z,45.23
2023-03-16T01:18:28.206Z,44.87
2023-03-16T01:20:55.045Z,45.41
2023-03-16T01:23:22.242Z,45.32
2023-03-16T01:25:53.143Z,45.07
2023-03-16T01:28:20.884Z,44.98
2023-03-16T01:30:47.652Z,45.38
2023-03-16T01:33:14.617Z,45.06
2023-03-16T01:35:41.254Z,45.13
2023-03-16T01:38:08.229Z,45.29
2023-03-16T01:40:34.874Z,45.13
2023-03-16T01:43:02.303Z,45.26
2023-03-16T01:45:47.777Z,44.99
2023-03-16T01:48:14.741Z,45.23
2023-03-16T01:50:42.221Z,45.11
2023-03-16T01:53:09.383Z,45.23
2023-03-16T01:55:36.025Z,45.33
2023-03-16T01:58:02.990Z,45.12
2023-03-16T02:00:34.686Z,45.44
2023-03-16T02:03:04.447Z,45.07
2023-03-16T02:05:33.422Z,45.66
2023-03-16T02:08:00.398Z,45.11
2023-03-16T02:10:27.830Z,45.51
2023-03-16T02:12:55.232Z,45.25
2023-03-16T02:15:21.953Z,45.54
2023-03-16T02:17:48.915Z,45.22
2023-03-16T02:20:16.260Z,45.52
2023-03-16T02:22:44.181Z,45.31
2023-03-16T02:25:11.317Z,45.52
2023-03-16T02:27:43.542Z,45.32
2023-03-16T02:30:13.631Z,45.81
2023-03-16T02:32:40.747Z,45.34
2023-03-16T02:35:07.715Z,45.28
2023-03-16T02:37:34.694Z,45.38
2023-03-16T02:40:14.802Z,45.43
2023-03-16T02:42:41.725Z,45.81
2023-03-16T02:45:08.627Z,45.94
2023-03-16T02:47:42.776Z,45.92
2023-03-16T02:50:10.013Z,45.51
2023-03-16T02:52:37.213Z,45.58
2023-03-16T02:55:04.589Z,45.81
2023-03-16T02:57:31.799Z,45.67
2023-03-16T02:59:58.470Z,45.89
2023-03-16T03:02:25.479Z,45.71
2023-03-16T03:04:54.573Z,45.75
2023-03-16T03:07:21.627Z,45.40
2023-03-16T03:09:48.287Z,45.74
2023-03-16T03:12:15.255Z,45.72
2023-03-16T03:14:41.988Z,45.55
2023-03-16T03:17:09.994Z,45.49
2023-03-16T03:19:36.675Z,45.67
2023-03-16T03:22:04.439Z,45.90
2023-03-16T03:24:31.772Z,45.58
2023-03-16T03:27:04.018Z,45.94
2023-03-16T03:29:34.654Z,45.59
2023-03-16T03:32:02.198Z,45.71
2023-03-16T03:34:29.174Z,46.03
2023-03-16T03:36:56.228Z,45.61
2023-03-16T03:39:22.886Z,45.87
2023-03-16T03:41:49.891Z,45.72
2023-03-16T03:44:16.513Z,45.92
2023-03-16T03:46:43.631Z,46.04
2023-03-16T03:49:11.279Z,45.94
2023-03-16T03:51:38.253Z,46.07
2023-03-16T03:54:04.881Z,45.83
2023-03-16T03:56:31.820Z,45.71
2023-03-16T03:58:58.462Z,45.91
2023-03-16T04:01:25.419Z,45.88
2023-03-16T04:03:52.106Z,45.88
2023-03-16T04:06:19.107Z,45.94
2023-03-16T04:08:45.734Z,46.10
2023-03-16T04:11:12.666Z,45.93
2023-03-16T04:13:39.408Z,46.07
2023-03-16T04:16:06.464Z,45.85
2023-03-16T04:18:39.375Z,46.02
2023-03-16T04:21:06.480Z,45.91
2023-03-16T04:23:36.094Z,46.23
2023-03-16T04:26:03.872Z,45.82
2023-03-16T04:28:30.486Z,46.21
2023-03-16T04:31:01.049Z,46.15
2023-03-16T04:33:27.773Z,45.82
2023-03-16T04:35:54.807Z,46.02
2023-03-16T04:38:22.159Z,45.93
2023-03-16T04:40:49.102Z,45.94
2023-03-16T04:43:15.844Z,45.90
2023-03-16T04:45:42.880Z,46.06
2023-03-16T04:48:10.450Z,46.21
2023-03-16T04:50:37.426Z,46.20
2023-03-16T04:53:04.685Z,46.32
2023-03-16T04:55:31.628Z,46.08
2023-03-16T04:57:58.309Z,45.90
2023-03-16T05:00:25.336Z,46.08
2023-03-16T05:02:52.040Z,46.14
2023-03-16T05:05:19.223Z,46.13
2023-03-16T05:07:45.912Z,46.07
2023-03-16T05:10:13.534Z,46.13
2023-03-16T05:12:40.618Z,46.16
2023-03-16T05:15:07.837Z,46.28
2023-03-16T05:17:34.695Z,46.09
2023-03-16T05:20:01.679Z,46.30
2023-03-16T05:22:28.335Z,45.93
2023-03-16T05:24:55.283Z,46.18
2023-03-16T05:27:21.946Z,46.38
2023-03-16T05:29:48.919Z,46.04
2023-03-16T05:32:17.201Z,46.04
2023-03-16T05:34:44.270Z,45.86
2023-03-16T05:37:11.062Z,45.89
2023-03-16T05:39:38.125Z,46.19
2023-03-16T05:42:05.945Z,46.14
2023-03-16T05:44:33.560Z,46.19
2023-03-16T05:47:00.290Z,46.14
2023-03-16T05:49:27.259Z,46.19
2023-03-16T05:51:54.814Z,46.36
2023-03-16T05:54:21.777Z,46.18
2023-03-16T05:56:48.439Z,46.07
2023-03-16T05:59:17.916Z,46.36
2023-03-16T06:01:44.650Z,46.07
2023-03-16T06:04:11.764Z,46.02
2023-03-16T06:06:38.478Z,46.21
2023-03-16T06:09:05.555Z,46.24
2023-03-16T06:11:32.999Z,46.41
2023-03-16T06:14:00.332Z,46.01
2023-03-16T06:16:27.177Z,46.43
2023-03-16T06:18:54.305Z,46.35
2023-03-16T06:21:20.940Z,46.57
2023-03-16T06:23:48.153Z,46.37
2023-03-16T06:26:14.955Z,46.70
2023-03-16T06:28:42.026Z,46.38
2023-03-16T06:31:08.721Z,46.19
2023-03-16T06:33:35.714Z,46.34
2023-03-16T06:36:02.454Z,46.38
2023-03-16T06:38:29.515Z,46.34
2023-03-16T06:40:56.228Z,46.09
2023-03-16T06:43:23.356Z,46.24
2023-03-16T06:45:50.055Z,46.40
2023-03-16T06:48:17.043Z,46.48
2023-03-16T06:50:44.985Z,46.05
2023-03-16T06:53:11.967Z,46.22
2023-03-16T06:55:38.660Z,46.36
2023-03-16T06:58:05.618Z,46.38
2023-03-16T07:00:34.091Z,46.01
2023-03-16T07:03:02.007Z,46.14
2023-03-16T07:05:28.798Z,46.63
2023-03-16T07:07:55.799Z,46.56
2023-03-16T07:10:22.501Z,46.74
2023-03-16T07:12:50.374Z,46.44
2023-03-16T07:15:17.266Z,46.28
2023-03-16T07:17:44.394Z,46.35
2023-03-16T07:20:12.775Z,46.31
2023-03-16T07:22:40.231Z,46.00
2023-03-16T07:25:07.278Z,46.14
2023-03-16T07:27:34.241Z,46.46
2023-03-16T07:30:00.952Z,46.46
2023-03-16T07:32:27.983Z,46.05
2023-03-16T07:34:54.674Z,46.29
2023-03-16T07:37:25.371Z,46.16
2023-03-16T07:39:52.331Z,46.11
2023-03-16T07:42:20.638Z,46.17
2023-03-16T07:44:47.350Z,45.77
2023-03-16T07:47:14.322Z,45.97
2023-03-16T07:49:41.811Z,45.83
2023-03-16T07:52:08.966Z,46.25
2023-03-16T07:54:35.754Z,46.11
2023-03-16T07:57:02.751Z,45.88
2023-03-16T07:59:29.507Z,45.94
2023-03-16T08:01:56.940Z,45.98
2023-03-16T08:04:23.831Z,45.78
2023-03-16T08:06:52.583Z,45.42
2023-03-16T08:09:19.408Z,45.19
2023-03-16T08:11:46.479Z,45.65
2023-03-16T08:14:13.283Z,45.39
2023-03-16T08:16:40.348Z,45.38
2023-03-16T08:19:07.170Z,45.53
2023-03-16T08:21:40.114Z,45.23
2023-03-16T08:24:15.584Z,45.14
2023-03-16T08:26:42.659Z,45.29
2023-03-16T08:29:09.464Z,45.11
2023-03-16T08:31:36.600Z,45.13
2023-03-16T08:34:03.650Z,45.05
2023-03-16T08:36:30.722Z,44.99
2023-03-16T08:39:06.512Z,45.15
2023-03-16T08:41:34.842Z,44.90
2023-03-16T08:44:02.094Z,44.86
2023-03-16T08:46:29.122Z,44.93
2023-03-16T08:48:58.750Z,44.80
2023-03-16T08:51:26.708Z,44.99
2023-03-16T08:53:54.203Z,44.64
2023-03-16T08:56:21.555Z,44.67
2023-03-16T08:58:50.454Z,44.47
2023-03-16T09:01:19.784Z,44.46
2023-03-16T09:03:46.745Z,44.59
2023-03-16T09:06:14.990Z,44.60
2023-03-16T09:08:41.768Z,44.38
2023-03-16T09:11:09.663Z,44.45
2023-03-16T09:13:36.628Z,44.48
2023-03-16T09:16:03.952Z,44.59
2023-03-16T09:18:31.327Z,44.35
2023-03-16T09:21:02.385Z,44.01
2023-03-16T09:23:29.502Z,43.98
2023-03-16T09:26:03.186Z,43.93
2023-03-16T09:28:30.907Z,44.06
2023-03-16T09:30:58.360Z,43.83
2023-03-16T09:33:25.780Z,43.87
2023-03-16T09:35:53.214Z,43.92
2023-03-16T09:38:19.922Z,43.57
2023-03-16T09:40:48.996Z,43.65
2023-03-16T09:43:21.994Z,43.69
2023-03-16T09:45:51.961Z,43.44
2023-03-16T09:48:20.926Z,43.34
2023-03-16T09:50:49.639Z,43.54
2023-03-16T09:53:16.614Z,43.16
2023-03-16T09:55:43.659Z,43.11
2023-03-16T09:58:17.499Z,42.89
2023-03-16T10:00:50.821Z,42.71
2023-03-16T10:03:36.106Z,42.72
2023-03-16T10:06:04.295Z,42.22
2023-03-16T10:08:33.111Z,42.22
2023-03-16T10:11:12.615Z,42.28
2023-03-16T10:13:42.424Z,42.63
2023-03-16T10:16:20.119Z,42.62
2023-03-16T10:18:48.202Z,42.46
2023-03-16T10:21:16.849Z,41.96
2023-03-16T10:23:44.415Z,41.95
2023-03-16T10:26:15.858Z,41.91
2023-03-16T10:28:43.604Z,42.01
2023-03-16T10:31:10.857Z,41.86
2023-03-16T10:33:37.714Z,42.21
2023-03-16T10:36:12.961Z,41.98
2023-03-16T10:38:40.808Z,41.48
2023-03-16T10:41:23.091Z,40.89
2023-03-16T10:43:50.852Z,40.82
2023-03-16T10:46:18.069Z,40.91
2023-03-16T10:48:54.955Z,40.99
2023-03-16T10:51:25.282Z,40.54
2023-03-16T10:53:52.014Z,40.53
2023-03-16T10:56:25.440Z,40.42
2023-03-16T10:58:52.175Z,40.87
2023-03-16T11:01:24.287Z,40.39
2023-03-16T11:03:51.429Z,40.84
2023-03-16T11:06:25.937Z,41.15
2023-03-16T11:08:53.925Z,41.30
2023-03-16T11:11:21.095Z,41.21
2023-03-16T11:13:48.008Z,41.14
2023-03-16T11:16:16.820Z,40.98
2023-03-16T11:19:06.951Z,41.06
2023-03-16T11:21:41.212Z,40.95
2023-03-16T11:24:19.912Z,40.57
2023-03-16T11:26:56.060Z,40.02
2023-03-16T11:29:32.788Z,40.38
2023-03-16T11:32:06.445Z,40.55
2023-03-16T11:34:33.379Z,40.44
2023-03-16T11:37:21.658Z,40.36
2023-03-16T11:40:09.392Z,40.44
2023-03-16T11:42:50.016Z,40.69
2023-03-16T11:45:25.881Z,40.51
2023-03-16T11:47:53.065Z,40.41
2023-03-16T11:50:26.004Z,40.52
2023-03-16T11:53:12.278Z,40.73
2023-03-16T11:55:46.720Z,41.03
2023-03-16T11:58:21.628Z,41.03
2023-03-16T12:01:00.538Z,41.06
2023-03-16T12:03:42.728Z,41.14
2023-03-16T12:06:23.572Z,40.70
2023-03-16T12:08:55.469Z,40.90
2023-03-16T12:11:25.735Z,40.85
2023-03-16T12:14:11.001Z,40.38
2023-03-16T12:16:49.504Z,40.64
2023-03-16T12:19:35.866Z,40.41
2023-03-16T12:22:04.273Z,40.36
2023-03-16T12:24:33.933Z,40.23
2023-03-16T12:27:00.728Z,40.49
2023-03-16T12:29:58.499Z,40.36
2023-03-16T12:32:34.920Z,40.55
2023-03-16T12:35:21.534Z,40.69
2023-03-16T12:38:07.788Z,40.26
2023-03-16T12:40:34.935Z,40.38
2023-03-16T12:43:20.880Z,40.27
2023-03-16T12:45:59.627Z,39.95
2023-03-16T12:48:29.984Z,39.74
2023-03-16T12:50:58.606Z,40.09
2023-03-16T12:53:30.539Z,40.13
2023-03-16T12:55:57.975Z,40.18
2023-03-16T12:58:25.005Z,39.86
2023-03-16T13:00:56.805Z,39.96
2023-03-16T13:03:24.602Z,39.90
2023-03-16T13:06:01.020Z,40.01
2023-03-16T13:08:28.998Z,40.33
2023-03-16T13:11:06.200Z,40.32
2023-03-16T13:13:33.061Z,40.46
2023-03-16T13:16:09.268Z,40.22
2023-03-16T13:18:38.141Z,40.27
2023-03-16T13:21:15.382Z,40.20
2023-03-16T13:23:55.563Z,40.13
2023-03-16T13:26:43.425Z,40.38
2023-03-16T13:29:30.865Z,40.13
2023-03-16T13:31:58.513Z,40.26
2023-03-16T13:34:25.343Z,40.41
2023-03-16T13:36:56.907Z,40.25
2023-03-16T13:39:24.404Z,40.39
2023-03-16T13:42:17.920Z,40.40
2023-03-16T13:44:44.706Z,40.43
2023-03-16T13:47:16.820Z,40.50
2023-03-16T13:49:48.761Z,40.64
2023-03-16T13:52:22.491Z,40.75
2023-03-16T13:54:49.399Z,40.66
2023-03-16T13:57:16.494Z,40.88
2023-03-16T13:59:43.749Z,40.94
2023-03-16T14:02:16.713Z,40.74
2023-03-16T14:04:43.608Z,40.94
2023-03-16T14:07:16.865Z,40.83
2023-03-16T14:09:45.296Z,40.95
2023-03-16T14:12:18.857Z,41.06
2023-03-16T14:14:50.257Z,41.17
2023-03-16T14:17:18.208Z,41.28
2023-03-16T14:19:58.717Z,41.33
2023-03-16T14:22:31.051Z,41.28
2023-03-16T14:24:59.251Z,41.50
2023-03-16T14:27:32.865Z,41.43
2023-03-16T14:30:14.778Z,41.56
2023-03-16T14:32:41.872Z,41.74
2023-03-16T14:35:16.072Z,41.76
2023-03-16T14:37:43.667Z,41.90
2023-03-16T14:40:38.764Z,42.03
2023-03-16T14:43:06.903Z,42.01
2023-03-16T14:45:34.039Z,42.07
2023-03-16T14:48:02.203Z,41.98
2023-03-16T14:50:29.060Z,42.07
2023-03-16T14:52:56.520Z,41.94
2023-03-16T14:55:24.033Z,42.12
2023-03-16T14:57:51.545Z,42.28
2023-03-16T15:00:19.236Z,41.56
2023-03-16T15:02:51.004Z,41.82
2023-03-16T15:05:21.724Z,42.01
2023-03-16T15:07:48.724Z,42.02
2023-03-16T15:10:15.466Z,41.84
2023-03-16T15:12:50.379Z,41.89
2023-03-16T15:15:18.826Z,42.20
2023-03-16T15:17:46.337Z,42.38
2023-03-16T15:20:13.714Z,42.04
2023-03-16T15:22:40.793Z,41.63
2023-03-16T15:25:28.048Z,41.67
2023-03-16T15:27:55.149Z,42.03
2023-03-16T15:30:23.327Z,42.06
2023-03-16T15:32:50.426Z,42.10
2023-03-16T15:35:17.557Z,42.18
2023-03-16T15:37:44.666Z,42.25
2023-03-16T15:40:18.812Z,42.36
2023-03-16T15:42:47.036Z,42.58
2023-03-16T15:45:14.774Z,42.60
2023-03-16T15:47:42.317Z,42.67
2023-03-16T15:50:11.346Z,42.52
2023-03-16T15:52:38.437Z,42.66
2023-03-16T15:55:08.392Z,42.65
2023-03-16T15:57:35.533Z,42.76
2023-03-16T16:00:02.454Z,42.81
2023-03-16T16:02:30.377Z,42.72
2023-03-16T16:04:57.389Z,42.75
2023-03-16T16:07:24.553Z,42.88
2023-03-16T16:09:51.924Z,42.91
2023-03-16T16:12:19.230Z,42.85
2023-03-16T16:14:46.315Z,42.84
2023-03-16T16:17:36.532Z,42.95
2023-03-16T16:20:09.658Z,42.79
2023-03-16T16:22:38.982Z,42.79
2023-03-16T16:25:05.746Z,43.12
2023-03-16T16:27:32.777Z,43.04
2023-03-16T16:29:59.514Z,43.22
2023-03-16T16:32:26.787Z,43.27
2023-03-16T16:35:03.853Z,43.15
2023-03-16T16:37:31.702Z,43.24
2023-03-16T16:39:58.442Z,43.16
2023-03-16T16:42:25.590Z,43.38
2023-03-16T16:44:52.338Z,43.23
2023-03-16T16:47:20.066Z,43.34
2023-03-16T16:49:46.750Z,43.22
2023-03-16T16:52:15.299Z,43.23
2023-03-16T16:54:42.008Z,43.31
2023-03-16T16:57:15.105Z,43.39
2023-03-16T16:59:44.124Z,43.41
2023-03-16T17:02:38.799Z,43.30
2023-03-16T17:05:06.651Z,43.34
2023-03-16T17:07:33.639Z,43.30
2023-03-16T17:10:00.405Z,43.38
2023-03-16T17:12:29.593Z,43.27
2023-03-16T17:14:56.464Z,43.20
2023-03-16T17:17:23.450Z,43.37
2023-03-16T17:19:50.240Z,43.36
2023-03-16T17:22:19.834Z,43.19
2023-03-16T17:24:46.601Z,43.44
2023-03-16T17:27:14.355Z,43.56
2023-03-16T17:29:42.738Z,43.31
2023-03-16T17:32:16.813Z,43.35
2023-03-16T17:34:43.626Z,43.63
2023-03-16T17:37:14.106Z,43.59
2023-03-16T17:39:41.616Z,43.55
2023-03-16T17:42:18.681Z,43.52
2023-03-16T17:44:46.363Z,43.54
2023-03-16T17:47:18.248Z,43.47
2023-03-16T17:49:48.724Z,43.64
2023-03-16T17:52:18.260Z,43.71
2023-03-16T17:54:47.856Z,43.43
2023-03-16T17:57:31.102Z,43.63
2023-03-16T17:59:58.330Z,43.60
2023-03-16T18:02:28.366Z,43.86
2023-03-16T18:04:55.121Z,43.80
2023-03-16T18:07:22.516Z,43.74
2023-03-16T18:09:49.344Z,43.80
2023-03-16T18:12:16.648Z,43.62
2023-03-16T18:14:43.798Z,43.77
2023-03-16T18:17:16.876Z,43.95
2023-03-16T18:19:43.973Z,44.03
2023-03-16T18:22:20.565Z,43.74
2023-03-16T18:24:48.680Z,43.99
2023-03-16T18:27:15.973Z,44.07
2023-03-16T18:29:42.845Z,43.80
2023-03-16T18:32:19.065Z,43.82
2023-03-16T18:34:46.736Z,43.68
2023-03-16T18:37:16.806Z,44.18
2023-03-16T18:39:43.517Z,43.84
2023-03-16T18:42:18.090Z,43.93
2023-03-16T18:44:44.805Z,43.82
2023-03-16T18:47:14.871Z,44.02
2023-03-16T18:49:41.648Z,43.77
2023-03-16T18:52:22.185Z,43.87
2023-03-16T18:54:48.933Z,44.08
2023-03-16T18:57:16.748Z,44.12
2023-03-16T18:59:43.471Z,44.22
2023-03-16T19:02:16.990Z,44.19
2023-03-16T19:04:43.932Z,43.91
2023-03-16T19:07:13.218Z,43.96
2023-03-16T19:09:39.905Z,43.98
2023-03-16T19:12:09.198Z,44.01
2023-03-16T19:14:36.870Z,44.09
2023-03-16T19:17:04.112Z,44.30
2023-03-16T19:19:31.049Z,43.91
2023-03-16T19:22:05.990Z,44.08
2023-03-16T19:24:37.426Z,44.08
2023-03-16T19:27:06.350Z,44.13
2023-03-16T19:29:33.508Z,44.08
2023-03-16T19:32:01.021Z,44.20
2023-03-16T19:34:27.868Z,44.16
2023-03-16T19:36:54.962Z,44.31
2023-03-16T19:39:22.068Z,44.18
2023-03-16T19:41:56.504Z,44.06
2023-03-16T19:44:25.324Z,44.53
2023-03-16T19:46:52.701Z,44.27
2023-03-16T19:49:21.206Z,44.39
2023-03-16T19:51:51.170Z,44.27
2023-03-16T19:54:24.185Z,44.38
2023-03-16T19:56:51.729Z,44.46
2023-03-16T19:59:18.937Z,44.60
2023-03-16T20:01:47.536Z,44.69
2023-03-16T20:04:15.150Z,44.39
2023-03-16T20:06:42.442Z,44.56
2023-03-16T20:09:09.248Z,44.55
2023-03-16T20:11:36.525Z,44.51
2023-03-16T20:14:03.758Z,44.63
2023-03-16T20:16:34.363Z,44.67
2023-03-16T20:19:01.795Z,44.27
2023-03-16T20:21:29.498Z,44.59
2023-03-16T20:23:56.399Z,44.53
2023-03-16T20:26:24.508Z,44.70
2023-03-16T20:28:51.301Z,44.52
2023-03-16T20:31:19.655Z,44.61
2023-03-16T20:33:46.530Z,44.91
2023-03-16T20:36:13.635Z,44.93
2023-03-16T20:38:40.987Z,44.73
2023-03-16T20:41:27.712Z,44.68
2023-03-16T20:43:54.928Z,44.73
2023-03-16T20:46:26.122Z,44.98
2023-03-16T20:48:53.468Z,44.59
2023-03-16T20:51:21.694Z,44.82
2023-03-16T20:53:49.052Z,44.76
2023-03-16T20:56:16.638Z,44.86
2023-03-16T20:58:45.066Z,44.72
2023-03-16T21:01:17.664Z,44.95
2023-03-16T21:03:45.496Z,44.67
2023-03-16T21:06:22.283Z,45.09
2023-03-16T21:08:52.312Z,44.74
2023-03-16T21:11:23.869Z,44.89
2023-03-16T21:13:50.928Z,44.84
2023-03-16T21:16:18.277Z,44.76
2023-03-16T21:18:45.134Z,44.91
2023-03-16T21:21:13.188Z,44.97
2023-03-16T21:23:39.836Z,45.13
2023-03-16T21:26:06.937Z,44.93
2023-03-16T21:28:34.609Z,45.08
2023-03-16T21:31:03.072Z,44.95
2023-03-16T21:33:31.238Z,44.77
2023-03-16T21:35:58.990Z,45.02
2023-03-16T21:38:26.194Z,45.30
2023-03-16T21:40:53.330Z,45.26
2023-03-16T21:43:20.248Z,44.97
2023-03-16T21:45:47.478Z,44.98
2023-03-16T21:48:15.686Z,44.79
2023-03-16T21:50:42.896Z,44.98
2023-03-16T21:53:15.645Z,44.99
2023-03-16T21:55:42.670Z,45.22
2023-03-16T21:58:09.427Z,45.25
2023-03-16T22:00:36.442Z,44.93
2023-03-16T22:03:04.321Z,45.10
2023-03-16T22:05:33.062Z,45.15
2023-03-16T22:08:00.623Z,45.23
2023-03-16T22:10:28.463Z,45.01
2023-03-16T22:12:55.609Z,44.99
2023-03-16T22:15:25.159Z,44.91
2023-03-16T22:17:52.511Z,45.04
2023-03-16T22:20:20.875Z,44.91
2023-03-16T22:22:47.615Z,45.34
2023-03-16T22:25:15.887Z,45.07
2023-03-16T22:27:42.565Z,45.25
2023-03-16T22:30:17.596Z,44.89
2023-03-16T22:32:45.327Z,45.16
2023-03-16T22:35:38.809Z,45.09
2023-03-16T22:38:06.044Z,45.33
2023-03-16T22:40:37.263Z,45.22
2023-03-16T22:43:04.665Z,45.10
2023-03-16T22:45:32.833Z,45.01
2023-03-16T22:48:02.223Z,45.30
2023-03-16T22:50:30.281Z,45.00
2023-03-16T22:52:57.959Z,44.91
2023-03-16T22:55:27.020Z,45.19
2023-03-16T22:58:14.670Z,45.13
2023-03-16T23:00:41.751Z,45.21
2023-03-16T23:03:15.738Z,45.13
2023-03-16T23:05:42.833Z,45.20
2023-03-16T23:08:13.798Z,45.25
2023-03-16T23:10:40.812Z,45.46
2023-03-16T23:13:17.915Z,45.57
2023-03-16T23:15:45.786Z,45.09
2023-03-16T23:18:30.456Z,45.29
2023-03-16T23:20:57.459Z,45.19
2023-03-16T23:23:24.110Z,45.50
2023-03-16T23:25:51.094Z,45.52
2023-03-16T23:28:20.903Z,44.96
2023-03-16T23:30:47.895Z,45.49
2023-03-16T23:33:14.677Z,45.57
2023-03-16T23:35:43.095Z,45.42
2023-03-16T23:38:09.826Z,45.43
2023-03-16T23:40:37.040Z,45.38
2023-03-16T23:43:03.893Z,45.39
2023-03-16T23:45:49.033Z,45.64
2023-03-16T23:48:17.092Z,45.57
2023-03-16T23:50:44.281Z,45.65
2023-03-16T23:53:14.849Z,45.40
2023-03-16T23:55:41.900Z,45.56
2023-03-16T23:58:09.254Z,45.18
